createdAt,value
2018-11-10T00:02:00.347Z,15.00
2018-11-10T00:04:29.066Z,15.00
2018-11-10T00:06:57.992Z,15.30
2018-11-10T00:09:26.805Z,15.40
2018-11-10T00:11:56.029Z,15.30
2018-11-10T00:14:24.868Z,15.20
2018-11-10T00:16:53.272Z,15.10
2018-11-10T00:19:22.236Z,15.10
2018-11-10T00:21:50.649Z,15.30
2018-11-10T00:24:20.220Z,15.20
2018-11-10T00:26:48.980Z,14.90
2018-11-10T00:29:18.257Z,14.60
2018-11-10T00:31:46.980Z,14.40
2018-11-10T00:34:15.935Z,14.50
2018-11-10T00:36:44.786Z,14.50
2018-11-10T00:39:13.474Z,14.70
2018-11-10T00:41:42.412Z,14.80
2018-11-10T00:44:11.141Z,14.80
2018-11-10T00:46:39.575Z,15.00
2018-11-10T00:49:08.633Z,15.00
2018-11-10T00:51:37.108Z,15.00
2018-11-10T00:54:06.243Z,14.80
2018-11-10T00:56:35.033Z,15.00
2018-11-10T00:59:03.476Z,15.00
2018-11-10T01:01:32.302Z,15.00
2018-11-10T01:04:01.056Z,14.70
2018-11-10T01:06:29.820Z,14.80
2018-11-10T01:08:58.586Z,14.70
2018-11-10T01:11:27.303Z,14.10
2018-11-10T01:13:56.283Z,13.80
2018-11-10T01:16:25.026Z,13.50
2018-11-10T01:18:53.445Z,13.80
2018-11-10T01:21:21.849Z,13.60
2018-11-10T01:23:50.381Z,13.50
2018-11-10T01:26:19.039Z,13.50
2018-11-10T01:28:47.858Z,13.30
2018-11-10T01:31:16.581Z,13.10
2018-11-10T01:33:45.138Z,13.20
2018-11-10T01:36:13.516Z,13.10
2018-11-10T01:38:42.165Z,13.00
2018-11-10T01:41:10.979Z,13.00
2018-11-10T01:43:39.468Z,13.10
2018-11-10T01:46:08.181Z,13.20
2018-11-10T01:48:36.679Z,13.40
2018-11-10T01:51:05.816Z,13.60
2018-11-10T01:53:34.559Z,13.70
2018-11-10T01:56:03.072Z,13.40
2018-11-10T01:58:31.743Z,13.30
2018-11-10T02:01:00.174Z,13.50
2018-11-10T02:03:28.891Z,13.60
2018-11-10T02:05:57.681Z,13.60
2018-11-10T02:08:26.722Z,13.80
2018-11-10T02:10:55.511Z,13.90
2018-11-10T02:13:24.140Z,14.00
2018-11-10T02:15:52.811Z,14.20
2018-11-10T02:18:21.564Z,13.90
2018-11-10T02:20:50.317Z,14.00
2018-11-10T02:23:19.195Z,14.30
2018-11-10T02:25:48.332Z,14.20
2018-11-10T02:28:17.268Z,14.30
2018-11-10T02:30:46.266Z,14.40
2018-11-10T02:33:15.112Z,14.20
2018-11-10T02:35:43.832Z,14.10
2018-11-10T02:38:12.639Z,14.30
2018-11-10T02:40:41.036Z,14.00
2018-11-10T02:43:09.716Z,13.80
2018-11-10T02:45:38.605Z,13.90
2018-11-10T02:48:07.397Z,14.00
2018-11-10T02:50:36.576Z,14.10
2018-11-10T02:53:05.334Z,14.10
2018-11-10T02:55:34.031Z,14.00
2018-11-10T02:58:02.989Z,13.80
2018-11-10T03:00:31.871Z,13.70
2018-11-10T03:03:00.648Z,13.60
2018-11-10T03:05:29.426Z,13.80
2018-11-10T03:07:58.213Z,13.80
2018-11-10T03:10:26.640Z,14.00
2018-11-10T03:12:55.201Z,14.30
2018-11-10T03:15:23.618Z,14.40
2018-11-10T03:17:52.179Z,14.40
2018-11-10T03:20:20.873Z,14.50
2018-11-10T03:22:49.581Z,14.50
2018-11-10T03:25:18.036Z,14.40
2018-11-10T03:27:46.792Z,14.50
2018-11-10T03:30:15.469Z,14.50
2018-11-10T03:32:44.123Z,14.40
2018-11-10T03:35:12.863Z,14.20
2018-11-10T03:37:41.587Z,14.20
2018-11-10T03:40:11.462Z,14.30
2018-11-10T03:42:40.531Z,14.20
2018-11-10T03:45:10.850Z,14.10
2018-11-10T03:47:39.968Z,14.20
2018-11-10T03:50:09.391Z,14.20
2018-11-10T03:52:37.915Z,14.30
2018-11-10T03:55:07.244Z,14.20
2018-11-10T03:57:35.756Z,14.20
2018-11-10T04:00:04.824Z,14.30
2018-11-10T04:02:33.237Z,14.20
2018-11-10T04:05:01.744Z,14.30
2018-11-10T04:07:30.393Z,14.40
2018-11-10T04:09:59.187Z,14.40
2018-11-10T04:12:28.022Z,14.40
2018-11-10T04:14:56.647Z,14.50
2018-11-10T04:17:25.315Z,14.50
2018-11-10T04:19:53.949Z,14.40
2018-11-10T04:22:30.126Z,14.60
2018-11-10T04:24:59.021Z,14.60
2018-11-10T04:27:27.537Z,14.60
2018-11-10T04:29:56.257Z,14.60
2018-11-10T04:32:25.015Z,14.40
2018-11-10T04:34:53.834Z,14.30
2018-11-10T04:37:22.739Z,14.30
2018-11-10T04:39:51.174Z,14.40
2018-11-10T04:42:19.991Z,14.40
2018-11-10T04:44:49.049Z,14.40
2018-11-10T04:47:17.779Z,14.50
2018-11-10T04:49:46.682Z,14.50
2018-11-10T04:52:15.571Z,14.50
2018-11-10T04:54:44.218Z,14.50
2018-11-10T04:57:12.962Z,14.00
2018-11-10T04:59:41.881Z,13.80
2018-11-10T05:02:10.537Z,13.90
2018-11-10T05:04:39.288Z,14.10
2018-11-10T05:07:08.009Z,14.10
2018-11-10T05:09:36.655Z,14.20
2018-11-10T05:12:05.397Z,14.10
2018-11-10T05:14:34.272Z,14.20
2018-11-10T05:17:02.897Z,14.20
2018-11-10T05:19:31.711Z,14.20
2018-11-10T05:22:00.515Z,14.10
2018-11-10T05:24:29.267Z,14.30
2018-11-10T05:26:57.690Z,14.40
2018-11-10T05:29:26.365Z,14.20
2018-11-10T05:31:54.996Z,14.00
2018-11-10T05:34:23.643Z,14.10
2018-11-10T05:36:52.278Z,14.20
2018-11-10T05:39:21.026Z,14.10
2018-11-10T05:41:49.774Z,14.10
2018-11-10T05:44:18.521Z,14.20
2018-11-10T05:46:47.208Z,14.40
2018-11-10T05:49:16.101Z,14.70
2018-11-10T05:51:44.914Z,15.00
2018-11-10T05:54:13.657Z,15.60
2018-11-10T05:56:42.460Z,15.90
2018-11-10T05:59:11.155Z,16.30
2018-11-10T06:01:39.707Z,16.60
2018-11-10T06:04:08.424Z,17.20
2018-11-10T06:06:37.098Z,17.70
2018-11-10T06:09:08.721Z,17.80
2018-11-10T06:11:37.564Z,18.20
2018-11-10T06:14:06.291Z,19.00
2018-11-10T06:16:34.925Z,19.20
2018-11-10T06:19:03.605Z,18.80
2018-11-10T06:21:32.161Z,19.40
2018-11-10T06:24:00.878Z,19.10
2018-11-10T06:26:30.037Z,19.30
2018-11-10T06:28:58.868Z,20.50
2018-11-10T06:31:27.304Z,21.60
2018-11-10T06:33:56.147Z,21.10
2018-11-10T06:36:25.010Z,19.80
2018-11-10T06:38:53.692Z,20.90
2018-11-10T06:41:22.433Z,22.10
2018-11-10T06:43:50.945Z,22.40
2018-11-10T06:46:19.445Z,22.60
2018-11-10T06:48:48.181Z,21.80
2018-11-10T06:51:16.820Z,22.30
2018-11-10T06:53:45.399Z,23.30
2018-11-10T06:56:13.841Z,23.80
2018-11-10T06:58:42.362Z,24.40
2018-11-10T07:01:11.115Z,24.50
2018-11-10T07:03:40.007Z,25.00
2018-11-10T07:06:08.731Z,24.60
2018-11-10T07:08:37.321Z,23.50
2018-11-10T07:11:05.903Z,23.30
2018-11-10T07:13:34.361Z,24.20
2018-11-10T07:16:03.068Z,24.50
2018-11-10T07:18:31.821Z,24.00
2018-11-10T07:21:00.541Z,23.40
2018-11-10T07:23:29.337Z,23.70
2018-11-10T07:25:58.913Z,24.30
2018-11-10T07:28:27.757Z,25.00
2018-11-10T07:30:57.165Z,25.80
2018-11-10T07:33:26.859Z,26.50
2018-11-10T07:35:55.230Z,26.20
2018-11-10T07:38:24.063Z,26.00
2018-11-10T07:40:52.773Z,26.30
2018-11-10T07:43:21.588Z,27.00
2018-11-10T07:45:50.285Z,24.50
2018-11-10T07:48:18.733Z,23.50
2018-11-10T07:50:47.567Z,23.40
2018-11-10T07:53:16.482Z,24.40
2018-11-10T07:55:45.196Z,23.90
2018-11-10T07:58:14.086Z,24.00
2018-11-10T08:00:42.888Z,23.80
2018-11-10T08:03:11.514Z,24.10
2018-11-10T08:05:40.245Z,26.20
2018-11-10T08:08:09.053Z,26.70
2018-11-10T08:10:43.238Z,24.60
2018-11-10T08:13:11.693Z,24.90
2018-11-10T08:15:40.574Z,24.20
2018-11-10T08:18:09.229Z,23.50
2018-11-10T08:20:38.496Z,24.00
2018-11-10T08:23:07.275Z,23.70
2018-11-10T08:25:35.961Z,24.30
2018-11-10T08:28:04.837Z,24.00
2018-11-10T08:30:33.475Z,23.30
2018-11-10T08:33:02.241Z,23.90
2018-11-10T08:35:31.150Z,25.40
2018-11-10T08:37:59.546Z,26.00
2018-11-10T08:40:28.409Z,24.70
2018-11-10T08:42:56.921Z,25.20
2018-11-10T08:45:25.649Z,26.10
2018-11-10T08:47:54.591Z,26.00
2018-11-10T08:50:22.982Z,25.20
2018-11-10T08:52:52.265Z,24.90
2018-11-10T08:55:21.027Z,25.40
2018-11-10T08:57:49.738Z,26.60
2018-11-10T09:00:18.528Z,27.40
2018-11-10T09:02:47.301Z,28.20
2018-11-10T09:05:15.983Z,28.30
2018-11-10T09:07:44.826Z,28.20
2018-11-10T09:10:14.221Z,28.30
2018-11-10T09:12:42.769Z,28.60
2018-11-10T09:15:14.150Z,29.50
2018-11-10T09:17:42.854Z,29.60
2018-11-10T09:20:13.229Z,29.70
2018-11-10T09:22:42.433Z,29.10
2018-11-10T09:25:12.414Z,28.60
2018-11-10T09:27:40.821Z,28.20
2018-11-10T09:30:10.806Z,28.50
2018-11-10T09:32:39.905Z,28.20
2018-11-10T09:35:09.857Z,27.90
2018-11-10T09:37:38.551Z,27.20
2018-11-10T09:40:09.040Z,25.80
2018-11-10T09:42:38.091Z,25.60
2018-11-10T09:45:08.489Z,25.00
2018-11-10T09:47:37.450Z,25.40
2018-11-10T09:50:09.103Z,25.20
2018-11-10T09:52:37.543Z,24.00
2018-11-10T09:55:06.457Z,22.90
2018-11-10T09:57:35.018Z,24.50
2018-11-10T10:00:04.055Z,23.80
2018-11-10T10:02:33.186Z,23.60
2018-11-10T10:05:01.869Z,22.50
2018-11-10T10:07:30.730Z,23.40
2018-11-10T10:09:59.437Z,24.00
2018-11-10T10:12:35.449Z,24.50
2018-11-10T10:15:04.479Z,26.20
2018-11-10T10:17:33.124Z,26.10
2018-11-10T10:20:05.273Z,26.30
2018-11-10T10:22:33.706Z,26.00
2018-11-10T10:25:02.387Z,26.40
2018-11-10T10:27:31.433Z,25.60
2018-11-10T10:29:59.882Z,25.10
2018-11-10T10:32:29.264Z,24.80
2018-11-10T10:34:57.730Z,24.40
2018-11-10T10:37:26.477Z,23.20
2018-11-10T10:39:55.186Z,22.40
2018-11-10T10:42:23.994Z,23.30
2018-11-10T10:44:54.027Z,23.80
2018-11-10T10:47:22.465Z,23.00
2018-11-10T10:49:52.521Z,22.50
2018-11-10T10:52:22.015Z,23.80
2018-11-10T10:54:51.545Z,23.80
2018-11-10T10:57:20.192Z,23.70
2018-11-10T10:59:49.080Z,22.50
2018-11-10T11:02:23.147Z,21.70
2018-11-10T11:04:59.703Z,21.90
2018-11-10T11:07:28.442Z,23.50
2018-11-10T11:09:57.183Z,25.10
2018-11-10T11:12:25.977Z,25.40
2018-11-10T11:14:54.453Z,24.80
2018-11-10T11:17:23.034Z,24.10
2018-11-10T11:19:51.445Z,24.90
2018-11-10T11:22:20.187Z,26.60
2018-11-10T11:24:48.855Z,26.50
2018-11-10T11:27:17.614Z,27.10
2018-11-10T11:29:51.987Z,26.50
2018-11-10T11:32:20.797Z,26.20
2018-11-10T11:34:49.548Z,25.80
2018-11-10T11:37:18.261Z,25.40
2018-11-10T11:39:47.331Z,24.40
2018-11-10T11:42:16.190Z,24.20
2018-11-10T11:44:44.608Z,23.50
2018-11-10T11:47:13.475Z,23.60
2018-11-10T11:49:41.972Z,24.60
2018-11-10T11:52:10.743Z,24.00
2018-11-10T11:54:39.796Z,24.60
2018-11-10T11:57:08.230Z,23.60
2018-11-10T11:59:36.638Z,25.10
2018-11-10T12:02:05.803Z,25.40
2018-11-10T12:04:34.200Z,25.60
2018-11-10T12:07:02.836Z,26.00
2018-11-10T12:09:31.668Z,25.40
2018-11-10T12:12:00.486Z,25.70
2018-11-10T12:14:29.112Z,24.10
2018-11-10T12:16:58.105Z,23.70
2018-11-10T12:19:26.942Z,22.70
2018-11-10T12:21:57.760Z,22.90
2018-11-10T12:24:31.452Z,23.90
2018-11-10T12:27:00.528Z,24.00
2018-11-10T12:29:29.374Z,24.70
2018-11-10T12:31:57.863Z,25.70
2018-11-10T12:34:26.540Z,26.00
2018-11-10T12:36:55.449Z,25.50
2018-11-10T12:39:24.362Z,24.80
2018-11-10T12:41:53.240Z,24.50
2018-11-10T12:44:22.121Z,24.50
2018-11-10T12:46:50.876Z,24.30
2018-11-10T12:49:19.428Z,24.80
2018-11-10T12:51:48.185Z,25.20
2018-11-10T12:54:16.945Z,26.30
2018-11-10T12:56:45.879Z,26.70
2018-11-10T12:59:14.343Z,26.10
2018-11-10T13:01:43.574Z,24.70
2018-11-10T13:04:12.341Z,24.70
2018-11-10T13:06:40.823Z,24.80
2018-11-10T13:09:10.607Z,23.40
2018-11-10T13:11:39.426Z,23.40
2018-11-10T13:14:10.050Z,24.10
2018-11-10T13:16:39.083Z,24.40
2018-11-10T13:19:09.048Z,24.60
2018-11-10T13:21:38.051Z,23.90
2018-11-10T13:24:07.204Z,24.00
2018-11-10T13:26:38.097Z,22.60
2018-11-10T13:29:07.111Z,22.20
2018-11-10T13:31:38.812Z,22.00
2018-11-10T13:34:10.985Z,22.00
2018-11-10T13:36:40.356Z,22.30
2018-11-10T13:39:09.702Z,22.60
2018-11-10T13:41:38.744Z,22.00
2018-11-10T13:44:07.465Z,21.60
2018-11-10T13:46:35.947Z,21.60
2018-11-10T13:49:04.508Z,22.10
2018-11-10T13:51:34.856Z,22.00
2018-11-10T13:54:03.546Z,21.60
2018-11-10T13:56:32.411Z,21.40
2018-11-10T13:59:02.353Z,21.50
2018-11-10T14:01:31.304Z,21.70
2018-11-10T14:04:00.072Z,21.30
2018-11-10T14:06:28.805Z,21.20
2018-11-10T14:08:57.322Z,21.20
2018-11-10T14:11:32.780Z,21.50
2018-11-10T14:14:01.417Z,21.00
2018-11-10T14:16:30.320Z,20.50
2018-11-10T14:18:59.109Z,20.50
2018-11-10T14:21:28.002Z,20.50
2018-11-10T14:23:56.848Z,20.50
2018-11-10T14:26:25.735Z,20.30
2018-11-10T14:28:54.421Z,20.70
2018-11-10T14:31:23.204Z,20.50
2018-11-10T14:33:52.066Z,20.00
2018-11-10T14:36:20.747Z,20.20
2018-11-10T14:38:49.330Z,20.10
2018-11-10T14:41:18.099Z,20.10
2018-11-10T14:43:46.870Z,19.80
2018-11-10T14:46:15.567Z,19.70
2018-11-10T14:48:44.438Z,19.60
2018-11-10T14:51:13.351Z,19.40
2018-11-10T14:53:42.035Z,19.40
2018-11-10T14:56:10.686Z,19.30
2018-11-10T14:58:39.520Z,19.30
2018-11-10T15:01:08.282Z,19.10
2018-11-10T15:03:37.021Z,19.10
2018-11-10T15:06:05.966Z,19.10
2018-11-10T15:08:34.697Z,19.00
2018-11-10T15:11:03.635Z,19.20
2018-11-10T15:13:32.284Z,19.10
2018-11-10T15:16:01.404Z,18.90
2018-11-10T15:18:30.198Z,18.80
2018-11-10T15:20:58.899Z,18.70
2018-11-10T15:23:28.082Z,18.60
2018-11-10T15:25:56.770Z,18.60
2018-11-10T15:28:25.521Z,18.70
2018-11-10T15:30:54.094Z,18.60
2018-11-10T15:33:22.872Z,18.60
2018-11-10T15:35:51.607Z,18.60
2018-11-10T15:38:20.392Z,18.60
2018-11-10T15:40:49.288Z,18.50
2018-11-10T15:43:18.236Z,18.40
2018-11-10T15:45:47.049Z,18.30
2018-11-10T15:48:15.918Z,18.30
2018-11-10T15:50:44.594Z,18.30
2018-11-10T15:53:13.308Z,18.40
2018-11-10T15:55:42.129Z,18.30
2018-11-10T15:58:10.517Z,18.10
2018-11-10T16:00:39.387Z,18.10
2018-11-10T16:03:07.864Z,17.90
2018-11-10T16:05:36.769Z,17.80
2018-11-10T16:08:05.637Z,17.80
2018-11-10T16:10:34.539Z,17.70
2018-11-10T16:13:03.220Z,17.90
2018-11-10T16:15:31.892Z,17.70
2018-11-10T16:18:00.679Z,17.70
2018-11-10T16:20:29.155Z,17.60
2018-11-10T16:22:58.613Z,17.70
2018-11-10T16:25:27.481Z,17.50
2018-11-10T16:27:56.287Z,17.50
2018-11-10T16:30:25.143Z,17.50
2018-11-10T16:32:55.793Z,17.60
2018-11-10T16:35:24.423Z,17.60
2018-11-10T16:37:52.874Z,17.50
2018-11-10T16:40:21.697Z,17.50
2018-11-10T16:42:50.498Z,17.50
2018-11-10T16:45:20.003Z,17.50
2018-11-10T16:47:48.817Z,17.30
2018-11-10T16:50:17.710Z,17.20
2018-11-10T16:52:46.825Z,17.10
2018-11-10T16:55:15.500Z,17.10
2018-11-10T16:57:44.221Z,17.00
2018-11-10T17:00:15.149Z,17.10
2018-11-10T17:02:43.993Z,17.00
2018-11-10T17:05:13.679Z,17.00
2018-11-10T17:07:42.343Z,16.90
2018-11-10T17:10:13.520Z,16.90
2018-11-10T17:12:42.703Z,16.90
2018-11-10T17:15:11.584Z,16.90
2018-11-10T17:17:40.327Z,17.00
2018-11-10T17:20:11.257Z,17.00
2018-11-10T17:22:40.097Z,17.00
2018-11-10T17:25:10.660Z,17.00
2018-11-10T17:27:39.815Z,17.00
2018-11-10T17:30:11.384Z,16.80
2018-11-10T17:32:39.821Z,16.80
2018-11-10T17:35:09.229Z,16.60
2018-11-10T17:37:37.961Z,16.40
2018-11-10T17:40:07.937Z,16.40
2018-11-10T17:42:36.517Z,16.60
2018-11-10T17:45:05.762Z,16.70
2018-11-10T17:47:34.545Z,16.70
2018-11-10T17:50:03.265Z,16.70
2018-11-10T17:52:32.208Z,16.70
2018-11-10T17:55:00.830Z,16.70
2018-11-10T17:57:29.740Z,16.80
2018-11-10T18:00:05.588Z,17.10
2018-11-10T18:02:34.051Z,17.20
2018-11-10T18:05:02.745Z,17.20
2018-11-10T18:07:31.635Z,17.20
2018-11-10T18:10:00.415Z,17.30
2018-11-10T18:12:29.167Z,17.00
2018-11-10T18:14:57.819Z,17.00
2018-11-10T18:17:26.623Z,17.10
2018-11-10T18:19:55.269Z,17.10
2018-11-10T18:22:24.138Z,16.90
2018-11-10T18:24:52.927Z,17.10
2018-11-10T18:27:21.660Z,17.00
2018-11-10T18:29:50.308Z,16.90
2018-11-10T18:32:18.998Z,16.70
2018-11-10T18:34:47.803Z,16.70
2018-11-10T18:37:16.660Z,16.60
2018-11-10T18:39:47.853Z,16.30
2018-11-10T18:42:16.792Z,16.20
2018-11-10T18:44:45.198Z,16.20
2018-11-10T18:47:13.922Z,15.90
2018-11-10T18:49:42.659Z,15.90
2018-11-10T18:52:11.450Z,16.00
2018-11-10T18:54:39.929Z,16.10
2018-11-10T18:57:08.352Z,16.20
2018-11-10T18:59:37.790Z,16.10
2018-11-10T19:02:06.452Z,16.30
2018-11-10T19:04:35.612Z,16.40
2018-11-10T19:07:04.044Z,16.30
2018-11-10T19:09:32.857Z,16.40
2018-11-10T19:12:01.549Z,16.50
2018-11-10T19:14:30.422Z,16.40
2018-11-10T19:16:58.911Z,16.40
2018-11-10T19:19:27.649Z,16.30
2018-11-10T19:21:56.313Z,15.90
2018-11-10T19:24:24.988Z,16.10
2018-11-10T19:26:53.797Z,16.20
2018-11-10T19:29:22.394Z,16.40
2018-11-10T19:31:51.155Z,16.10
2018-11-10T19:34:19.859Z,16.30
2018-11-10T19:36:48.651Z,16.40
2018-11-10T19:39:17.384Z,16.40
2018-11-10T19:41:46.131Z,16.50
2018-11-10T19:44:14.915Z,16.70
2018-11-10T19:46:43.529Z,16.70
2018-11-10T19:49:12.373Z,16.90
2018-11-10T19:51:41.092Z,16.90
2018-11-10T19:54:09.627Z,16.80
2018-11-10T19:56:38.368Z,16.80
2018-11-10T19:59:07.902Z,16.40
2018-11-10T20:01:36.957Z,16.30
2018-11-10T20:04:05.603Z,16.20
2018-11-10T20:06:34.372Z,16.20
2018-11-10T20:09:03.754Z,16.30
2018-11-10T20:11:32.760Z,16.10
2018-11-10T20:14:02.977Z,16.10
2018-11-10T20:16:33.052Z,15.80
2018-11-10T20:19:03.199Z,15.80
2018-11-10T20:21:33.620Z,15.80
2018-11-10T20:24:03.917Z,15.60
2018-11-10T20:26:34.630Z,15.60
2018-11-10T20:29:05.902Z,15.20
2018-11-10T20:38:28.292Z,15.00
2018-11-10T20:40:59.509Z,14.90
2018-11-10T20:43:30.590Z,15.00
2018-11-10T20:46:03.516Z,14.90
2018-11-10T20:48:38.938Z,14.80
2018-11-10T20:51:09.584Z,14.80
2018-11-10T20:53:39.968Z,14.80
2018-11-10T20:56:13.086Z,15.20
2018-11-10T20:58:43.941Z,15.10
2018-11-10T21:01:13.253Z,15.10
2018-11-10T21:03:48.159Z,15.30
2018-11-10T21:06:17.137Z,14.90
2018-11-10T21:08:47.870Z,15.00
2018-11-10T21:11:16.639Z,15.10
2018-11-10T21:13:46.113Z,15.30
2018-11-10T21:16:14.670Z,15.20
2018-11-10T21:18:45.147Z,15.30
2018-11-10T21:21:14.452Z,15.50
2018-11-10T21:23:43.165Z,15.40
2018-11-10T21:26:12.121Z,15.50
2018-11-10T21:28:40.626Z,15.30
2018-11-10T21:31:09.588Z,15.50
2018-11-10T21:33:38.043Z,15.40
2018-11-10T21:36:06.758Z,15.60
2018-11-10T21:38:35.471Z,15.70
2018-11-10T21:41:03.957Z,15.80
2018-11-10T21:43:32.813Z,15.80
2018-11-10T21:46:01.204Z,15.80
2018-11-10T21:48:29.624Z,15.80
2018-11-10T21:50:58.383Z,15.80
2018-11-10T21:53:27.115Z,15.70
2018-11-10T21:55:55.821Z,15.60
2018-11-10T21:58:24.520Z,15.70
2018-11-10T22:00:53.347Z,15.70
2018-11-10T22:03:22.063Z,15.70
2018-11-10T22:05:57.828Z,15.50
2018-11-10T22:08:26.296Z,15.50
2018-11-10T22:10:54.872Z,15.60
2018-11-10T22:13:23.561Z,15.50
2018-11-10T22:15:52.292Z,15.60
2018-11-10T22:18:20.857Z,15.50
2018-11-10T22:20:49.757Z,15.60
2018-11-10T22:23:18.400Z,15.60
2018-11-10T22:25:47.250Z,15.70
2018-11-10T22:28:16.030Z,15.60
2018-11-10T22:30:44.930Z,15.60
2018-11-10T22:33:14.558Z,15.60
2018-11-10T22:35:43.488Z,15.60
2018-11-10T22:38:12.360Z,15.50
2018-11-10T22:40:41.085Z,15.20
2018-11-10T22:43:09.965Z,15.20
2018-11-10T22:45:38.746Z,15.30
2018-11-10T22:48:07.948Z,15.40
2018-11-10T22:50:36.598Z,15.50
2018-11-10T22:53:05.601Z,15.50
2018-11-10T22:55:34.228Z,15.50
2018-11-10T22:58:02.971Z,15.40
2018-11-10T23:00:31.999Z,15.40
2018-11-10T23:03:01.380Z,15.60
2018-11-10T23:05:30.180Z,15.40
2018-11-10T23:07:59.071Z,15.40
2018-11-10T23:10:27.852Z,15.30
2018-11-10T23:12:56.539Z,15.50
2018-11-10T23:15:25.386Z,15.40
2018-11-10T23:17:54.349Z,15.30
2018-11-10T23:20:23.076Z,15.20
2018-11-10T23:22:51.938Z,15.20
2018-11-10T23:25:20.565Z,15.20
2018-11-10T23:27:49.249Z,15.20
2018-11-10T23:30:19.140Z,15.20
2018-11-10T23:32:47.983Z,15.40
2018-11-10T23:35:16.752Z,15.40
2018-11-10T23:37:45.586Z,15.40
2018-11-10T23:40:15.072Z,15.40
2018-11-10T23:42:43.999Z,15.40
2018-11-10T23:45:13.323Z,15.60
2018-11-10T23:47:41.828Z,15.60
2018-11-10T23:50:13.403Z,15.60
2018-11-10T23:52:42.195Z,15.50
2018-11-10T23:55:11.591Z,15.40
2018-11-10T23:57:40.328Z,15.40
